createdAt,value
2019-05-13T00:02:08.834Z,41.20
2019-05-13T00:04:44.278Z,41.20
2019-05-13T00:07:29.250Z,41.20
2019-05-13T00:09:58.646Z,41.20
2019-05-13T00:12:29.167Z,41.20
2019-05-13T00:14:58.381Z,41.10
2019-05-13T00:17:29.923Z,41.20
2019-05-13T00:19:58.836Z,41.10
2019-05-13T00:22:27.931Z,41.10
2019-05-13T00:24:58.753Z,41.10
2019-05-13T00:27:28.111Z,41.10
2019-05-13T00:29:57.374Z,41.10
2019-05-13T00:32:26.411Z,41.00
2019-05-13T00:34:56.026Z,41.10
2019-05-13T00:37:26.854Z,41.00
2019-05-13T00:39:56.202Z,41.00
2019-05-13T00:42:27.249Z,41.00
2019-05-13T00:44:56.289Z,41.00
2019-05-13T00:47:25.331Z,40.90
2019-05-13T00:49:56.943Z,40.90
2019-05-13T00:52:26.021Z,41.00
2019-05-13T00:54:56.318Z,40.90
2019-05-13T00:57:26.339Z,41.00
2019-05-13T00:59:55.394Z,41.00
2019-05-13T01:02:26.589Z,40.90
2019-05-13T01:04:55.567Z,40.90
2019-05-13T01:07:28.538Z,41.00
2019-05-13T01:09:55.597Z,41.60
2019-05-13T01:12:24.827Z,40.80
2019-05-13T01:14:53.959Z,40.80
2019-05-13T01:17:23.625Z,40.80
2019-05-13T01:19:53.846Z,40.80
2019-05-13T01:22:24.000Z,40.80
2019-05-13T01:24:54.990Z,40.80
2019-05-13T01:27:24.254Z,40.80
2019-05-13T01:29:53.546Z,41.50
2019-05-13T01:32:23.864Z,40.80
2019-05-13T01:34:53.798Z,40.90
2019-05-13T01:37:39.095Z,40.80
2019-05-13T01:39:57.614Z,40.80
2019-05-13T01:42:26.617Z,40.80
2019-05-13T01:44:55.847Z,40.80
2019-05-13T01:47:25.040Z,40.70
2019-05-13T01:50:04.110Z,40.70
2019-05-13T01:52:34.313Z,40.70
2019-05-13T01:55:05.402Z,40.70
2019-05-13T01:57:40.265Z,40.60
2019-05-13T02:00:09.600Z,40.60
2019-05-13T02:02:38.638Z,40.60
2019-05-13T02:05:08.020Z,41.30
2019-05-13T02:07:37.443Z,40.60
2019-05-13T02:10:07.934Z,40.60
2019-05-13T02:12:37.479Z,40.50
2019-05-13T02:15:07.599Z,40.50
2019-05-13T02:17:37.295Z,40.60
2019-05-13T02:20:06.526Z,40.50
2019-05-13T02:22:38.901Z,40.60
2019-05-13T02:25:08.405Z,40.50
2019-05-13T02:27:44.007Z,40.50
2019-05-13T02:30:16.709Z,40.50
2019-05-13T02:32:45.999Z,40.50
2019-05-13T02:35:15.251Z,40.50
2019-05-13T02:37:46.005Z,40.50
2019-05-13T02:40:17.450Z,40.50
2019-05-13T02:42:52.304Z,40.50
2019-05-13T02:45:22.712Z,40.50
2019-05-13T02:48:03.869Z,40.50
2019-05-13T02:50:33.996Z,40.40
2019-05-13T02:53:03.426Z,40.40
2019-05-13T02:55:33.392Z,40.40
2019-05-13T02:58:03.206Z,40.40
2019-05-13T03:00:33.073Z,41.20
2019-05-13T03:03:03.312Z,40.40
2019-05-13T03:05:32.639Z,40.40
2019-05-13T03:08:03.331Z,40.40
2019-05-13T03:10:33.220Z,40.40
2019-05-13T03:13:14.860Z,40.30
2019-05-13T03:16:32.466Z,40.40
2019-05-13T03:19:02.773Z,40.10
2019-05-13T03:21:32.719Z,40.50
2019-05-13T03:24:22.781Z,40.40
2019-05-13T03:26:53.674Z,40.30
2019-05-13T03:29:22.894Z,40.40
2019-05-13T03:31:55.562Z,40.40
2019-05-13T03:34:27.689Z,40.30
2019-05-13T03:36:56.599Z,40.30
2019-05-13T03:39:24.823Z,40.40
2019-05-13T03:41:57.710Z,40.40
2019-05-13T03:44:26.770Z,40.40
2019-05-13T03:46:58.319Z,40.40
2019-05-13T03:49:28.829Z,40.30
2019-05-13T03:51:58.389Z,40.20
2019-05-13T03:54:27.754Z,40.30
2019-05-13T03:56:57.016Z,40.40
2019-05-13T03:59:26.663Z,40.30
2019-05-13T04:01:56.372Z,40.30
2019-05-13T04:04:25.679Z,40.30
2019-05-13T04:06:55.282Z,40.30
2019-05-13T04:09:31.291Z,40.20
2019-05-13T04:11:55.935Z,40.30
2019-05-13T04:14:25.198Z,40.20
2019-05-13T04:17:13.593Z,40.30
2019-05-13T04:19:43.575Z,40.20
2019-05-13T04:22:15.456Z,40.30
2019-05-13T04:24:44.963Z,40.20
2019-05-13T04:27:16.887Z,40.20
2019-05-13T04:29:47.451Z,40.20
2019-05-13T04:32:18.312Z,40.30
2019-05-13T04:34:54.283Z,40.20
2019-05-13T04:37:22.246Z,40.30
2019-05-13T04:39:56.468Z,40.30
2019-05-13T04:42:27.487Z,40.40
2019-05-13T04:44:56.696Z,40.40
2019-05-13T04:47:26.376Z,40.30
2019-05-13T04:49:57.837Z,40.40
2019-05-13T04:52:32.712Z,40.40
2019-05-13T04:55:03.411Z,40.40
2019-05-13T04:57:38.274Z,40.50
2019-05-13T05:00:08.265Z,40.80
2019-05-13T05:02:56.499Z,40.90
2019-05-13T05:06:11.991Z,40.80
2019-05-13T05:09:07.168Z,40.80
2019-05-13T05:12:13.113Z,41.10
2019-05-13T05:15:43.879Z,41.30
2019-05-13T05:19:02.243Z,41.60
2019-05-13T05:21:41.755Z,41.70
2019-05-13T05:25:01.594Z,41.80
2019-05-13T05:28:38.341Z,41.70
2019-05-13T05:35:26.543Z,41.60
2019-05-13T05:38:25.827Z,41.70
2019-05-13T05:43:33.714Z,41.50
2019-05-13T05:46:03.776Z,41.30
2019-05-13T05:48:33.209Z,41.30
2019-05-13T05:51:08.615Z,41.30
2019-05-13T05:56:44.053Z,41.20
2019-05-13T05:59:14.381Z,41.10
2019-05-13T06:02:01.996Z,40.80
2019-05-13T06:04:34.479Z,40.80
2019-05-13T06:07:04.041Z,40.90
2019-05-13T06:09:33.556Z,40.80
2019-05-13T06:12:03.097Z,40.80
2019-05-13T06:14:35.065Z,40.80
2019-05-13T06:17:04.561Z,40.80
2019-05-13T06:19:34.179Z,40.80
2019-05-13T06:22:03.817Z,40.80
2019-05-13T06:24:33.649Z,40.70
2019-05-13T06:27:03.087Z,40.60
2019-05-13T06:29:32.729Z,40.50
2019-05-13T06:32:19.172Z,40.50
2019-05-13T06:34:56.701Z,40.60
2019-05-13T06:37:28.609Z,40.90
2019-05-13T06:43:12.860Z,40.90
2019-05-13T06:45:42.352Z,40.90
2019-05-13T06:48:11.888Z,40.90
2019-05-13T06:50:42.808Z,40.90
2019-05-13T06:53:21.743Z,40.90
2019-05-13T06:55:52.302Z,40.90
2019-05-13T06:58:22.287Z,40.90
2019-05-13T07:00:51.974Z,41.00
2019-05-13T07:03:33.230Z,41.00
2019-05-13T07:06:02.736Z,41.10
2019-05-13T07:08:32.097Z,41.10
2019-05-13T07:11:17.819Z,41.30
2019-05-13T07:13:38.624Z,41.30
2019-05-13T07:16:08.087Z,41.30
2019-05-13T07:18:38.819Z,41.40
2019-05-13T07:21:08.526Z,41.30
2019-05-13T07:23:37.841Z,41.40
2019-05-13T07:26:07.721Z,41.40
2019-05-13T07:29:07.619Z,41.40
2019-05-13T07:40:52.173Z,41.80
2019-05-13T07:43:21.488Z,42.20
2019-05-13T07:45:51.441Z,41.50
2019-05-13T07:48:26.805Z,41.40
2019-05-13T07:50:59.548Z,41.40
2019-05-13T07:53:25.987Z,41.40
2019-05-13T07:55:56.820Z,41.40
2019-05-13T07:58:26.066Z,41.40
2019-05-13T08:00:55.236Z,41.50
2019-05-13T08:03:24.528Z,41.40
2019-05-13T08:05:54.015Z,41.40
2019-05-13T08:08:26.217Z,41.40
2019-05-13T08:10:55.670Z,41.30
2019-05-13T08:13:25.013Z,41.30
2019-05-13T08:15:54.791Z,41.30
2019-05-13T08:18:24.263Z,41.30
2019-05-13T08:20:53.640Z,41.30
2019-05-13T08:23:28.735Z,41.30
2019-05-13T08:26:02.244Z,41.30
2019-05-13T08:29:25.040Z,41.30
2019-05-13T08:31:54.455Z,41.30
2019-05-13T08:34:23.791Z,41.30
2019-05-13T08:36:53.638Z,41.40
2019-05-13T08:39:26.746Z,41.40
2019-05-13T08:42:10.261Z,41.30
2019-05-13T08:44:26.411Z,41.30
2019-05-13T08:46:57.458Z,41.20
2019-05-13T08:49:27.314Z,41.30
2019-05-13T08:52:02.104Z,41.30
2019-05-13T08:54:56.978Z,41.20
2019-05-13T08:57:56.868Z,41.90
2019-05-13T09:00:15.259Z,41.20
2019-05-13T09:02:44.606Z,41.10
2019-05-13T09:05:13.924Z,41.20
2019-05-13T09:07:44.590Z,41.10
2019-05-13T09:10:15.086Z,41.20
2019-05-13T09:12:45.231Z,41.10
2019-05-13T09:15:14.781Z,41.10
2019-05-13T09:17:44.335Z,41.10
2019-05-13T09:20:13.695Z,41.10
2019-05-13T09:22:43.067Z,41.80
2019-05-13T09:25:15.439Z,41.00
2019-05-13T09:34:03.090Z,40.90
2019-05-13T09:36:32.530Z,41.00
2019-05-13T09:39:02.204Z,41.00
2019-05-13T09:41:35.378Z,40.90
2019-05-13T09:44:17.791Z,40.90
2019-05-13T09:46:51.632Z,40.90
2019-05-13T09:49:23.633Z,41.00
2019-05-13T09:52:39.596Z,40.90
2019-05-13T09:55:21.120Z,40.90
2019-05-13T09:57:44.934Z,40.90
2019-05-13T10:00:15.626Z,40.90
2019-05-13T10:02:45.030Z,40.90
2019-05-13T10:05:14.149Z,40.90
2019-05-13T10:07:43.424Z,40.80
2019-05-13T10:10:12.498Z,40.80
2019-05-13T10:12:42.554Z,40.60
2019-05-13T10:15:12.833Z,40.60
2019-05-13T10:17:42.945Z,40.50
2019-05-13T10:23:12.681Z,40.40
2019-05-13T10:23:44.994Z,40.60
2019-05-13T10:25:44.283Z,40.40
2019-05-13T10:28:14.008Z,40.40
2019-05-13T10:30:43.738Z,40.40
2019-05-13T10:33:13.033Z,40.40
2019-05-13T10:36:03.367Z,40.40
2019-05-13T10:39:22.387Z,40.40
2019-05-13T10:42:39.760Z,40.30
2019-05-13T10:45:23.525Z,40.30
2019-05-13T10:48:10.464Z,40.50
2019-05-13T10:50:41.842Z,40.50
2019-05-13T10:53:12.256Z,40.50
2019-05-13T10:55:42.238Z,40.50
2019-05-13T10:58:12.314Z,40.50
2019-05-13T11:00:44.665Z,40.40
2019-05-13T11:03:13.904Z,40.40
2019-05-13T11:05:44.752Z,40.50
2019-05-13T11:08:21.902Z,40.40
2019-05-13T11:10:57.273Z,40.40
2019-05-13T11:13:52.142Z,40.40
2019-05-13T11:16:17.214Z,40.50
2019-05-13T11:18:51.893Z,40.40
2019-05-13T11:21:26.365Z,40.60
2019-05-13T11:23:55.584Z,40.50
2019-05-13T11:26:26.402Z,41.20
2019-05-13T11:29:02.641Z,40.50
2019-05-13T11:31:32.895Z,40.50
2019-05-13T11:34:05.824Z,40.50
2019-05-13T11:36:42.738Z,40.50
2019-05-13T11:39:23.221Z,40.70
2019-05-13T11:41:55.573Z,41.10
2019-05-13T11:44:25.011Z,41.10
2019-05-13T11:46:54.248Z,40.90
2019-05-13T11:52:16.843Z,40.70
2019-05-13T11:54:45.338Z,40.80
2019-05-13T11:57:24.850Z,40.60
2019-05-13T11:59:54.184Z,40.70
2019-05-13T12:02:23.574Z,40.50
2019-05-13T12:04:53.737Z,40.50
2019-05-13T12:07:23.441Z,40.40
2019-05-13T12:09:55.718Z,40.30
2019-05-13T12:12:30.502Z,40.20
2019-05-13T12:15:22.493Z,40.10
2019-05-13T12:17:27.073Z,40.10
2019-05-13T12:19:56.160Z,40.00
2019-05-13T12:22:25.531Z,40.00
2019-05-13T12:27:43.601Z,40.00
2019-05-13T12:30:12.939Z,40.00
2019-05-13T12:32:44.611Z,40.00
2019-05-13T12:35:13.487Z,40.00
2019-05-13T12:37:44.385Z,40.00
2019-05-13T12:40:23.119Z,40.20
2019-05-13T12:42:53.861Z,40.10
2019-05-13T12:45:22.673Z,40.10
2019-05-13T12:47:53.009Z,40.10
2019-05-13T12:50:23.697Z,40.10
2019-05-13T12:52:53.151Z,40.10
2019-05-13T12:55:22.326Z,40.20
2019-05-13T12:58:12.142Z,40.10
2019-05-13T13:00:43.498Z,40.10
2019-05-13T13:03:13.274Z,40.20
2019-05-13T13:05:43.431Z,40.10
2019-05-13T13:08:19.205Z,40.10
2019-05-13T13:10:43.339Z,40.10
2019-05-13T13:13:12.435Z,40.10
2019-05-13T13:15:47.518Z,40.00
2019-05-13T13:18:14.278Z,39.80
2019-05-13T13:20:43.833Z,40.00
2019-05-13T13:23:13.178Z,40.00
2019-05-13T13:25:46.229Z,40.00
2019-05-13T13:28:15.536Z,40.00
2019-05-13T13:30:44.343Z,39.90
2019-05-13T13:33:16.711Z,39.90
2019-05-13T13:35:54.985Z,40.00
2019-05-13T13:38:16.857Z,39.80
2019-05-13T13:40:46.279Z,39.90
2019-05-13T13:43:15.773Z,40.00
2019-05-13T13:46:06.556Z,40.00
2019-05-13T13:48:15.427Z,39.90
2019-05-13T13:50:44.711Z,39.90
2019-05-13T13:56:02.518Z,39.90
2019-05-13T13:59:14.287Z,39.90
2019-05-13T14:01:54.811Z,39.80
2019-05-13T14:04:21.924Z,39.80
2019-05-13T14:09:29.165Z,39.80
2019-05-13T14:11:58.620Z,39.80
2019-05-13T14:14:27.732Z,39.80
2019-05-13T14:16:56.904Z,39.80
2019-05-13T14:19:37.778Z,39.80
2019-05-13T14:22:12.813Z,39.80
2019-05-13T14:24:48.572Z,39.80
2019-05-13T14:27:31.330Z,39.90
2019-05-13T14:30:01.564Z,39.80
2019-05-13T14:32:44.617Z,40.00
2019-05-13T14:35:34.908Z,39.90
2019-05-13T14:38:15.921Z,40.00
2019-05-13T14:40:51.938Z,40.00
2019-05-13T14:46:46.391Z,40.00
2019-05-13T14:49:18.316Z,40.00
2019-05-13T14:51:51.946Z,40.50
2019-05-13T14:54:35.093Z,40.60
2019-05-13T14:57:21.917Z,41.80
2019-05-13T14:59:56.631Z,41.70
2019-05-13T15:02:26.263Z,41.40
2019-05-13T15:05:06.464Z,41.60
2019-05-13T15:07:32.331Z,41.70
2019-05-13T15:10:02.562Z,41.80
2019-05-13T15:12:37.883Z,41.80
2019-05-13T15:15:07.605Z,42.00
2019-05-13T15:17:46.159Z,42.10
2019-05-13T15:20:16.260Z,42.10
2019-05-13T15:22:51.676Z,42.30
2019-05-13T15:25:22.544Z,42.40
2019-05-13T15:27:58.837Z,42.50
2019-05-13T15:30:28.731Z,42.60
2019-05-13T15:35:57.727Z,42.70
2019-05-13T15:38:27.495Z,42.70
2019-05-13T15:41:07.098Z,42.70
2019-05-13T15:43:54.672Z,42.70
2019-05-13T15:46:35.250Z,42.70
2019-05-13T15:49:08.474Z,42.90
2019-05-13T15:51:42.232Z,43.90
2019-05-13T15:54:15.285Z,45.10
2019-05-13T15:56:43.128Z,45.90
2019-05-13T15:59:12.764Z,47.60
2019-05-13T16:01:42.369Z,48.00
2019-05-13T16:04:18.475Z,48.40
2019-05-13T16:07:12.270Z,50.40
2019-05-13T16:09:42.252Z,52.30
2019-05-13T16:12:37.943Z,53.20
2019-05-13T16:15:17.631Z,53.40
2019-05-13T16:18:32.951Z,53.70
2019-05-13T16:21:02.173Z,53.10
2019-05-13T16:23:51.975Z,53.30
2019-05-13T16:26:27.250Z,53.00
2019-05-13T16:29:02.444Z,52.60
2019-05-13T16:31:48.936Z,52.30
2019-05-13T16:34:22.287Z,52.00
2019-05-13T16:37:01.879Z,51.60
2019-05-13T16:39:33.716Z,51.60
2019-05-13T16:42:07.851Z,51.00
2019-05-13T16:44:38.513Z,50.60
2019-05-13T16:47:07.668Z,50.50
2019-05-13T16:49:37.285Z,50.20
2019-05-13T16:52:08.700Z,50.50
2019-05-13T16:58:05.817Z,49.50
2019-05-13T17:00:37.806Z,49.10
2019-05-13T17:03:11.352Z,48.90
2019-05-13T17:05:46.411Z,48.70
2019-05-13T17:08:20.032Z,48.70
2019-05-13T17:10:52.475Z,48.60
2019-05-13T17:13:22.278Z,48.50
2019-05-13T17:16:03.153Z,48.30
2019-05-13T17:18:32.684Z,48.30
2019-05-13T17:21:31.671Z,48.20
2019-05-13T17:24:17.955Z,48.10
2019-05-13T17:27:01.495Z,48.10
2019-05-13T17:29:42.039Z,48.10
2019-05-13T17:32:14.212Z,48.10
2019-05-13T17:34:51.666Z,48.00
2019-05-13T17:37:23.721Z,47.90
2019-05-13T17:40:12.823Z,47.70
2019-05-13T17:42:47.526Z,47.60
2019-05-13T17:45:23.571Z,47.30
2019-05-13T17:48:28.373Z,47.20
2019-05-13T17:51:01.116Z,47.00
2019-05-13T17:54:08.625Z,46.40
2019-05-13T17:56:51.716Z,45.80
2019-05-13T17:59:46.671Z,45.70
2019-05-13T18:02:42.307Z,45.50
2019-05-13T18:05:12.208Z,45.30
2019-05-13T18:08:06.271Z,45.30
2019-05-13T18:10:34.852Z,45.20
2019-05-13T18:13:06.530Z,45.30
2019-05-13T18:15:47.876Z,45.40
2019-05-13T18:18:39.114Z,44.70
2019-05-13T18:21:12.516Z,45.20
2019-05-13T18:24:05.203Z,45.30
2019-05-13T18:26:42.212Z,45.10
2019-05-13T18:29:23.630Z,45.20
2019-05-13T18:31:56.279Z,45.30
2019-05-13T18:34:50.405Z,45.30
2019-05-13T18:39:37.778Z,45.40
2019-05-13T18:40:48.890Z,45.50
2019-05-13T18:43:23.997Z,45.50
2019-05-13T18:46:09.127Z,45.60
2019-05-13T18:48:58.326Z,45.60
2019-05-13T18:51:32.952Z,45.70
2019-05-13T18:54:03.374Z,45.80
2019-05-13T18:56:32.994Z,45.80
2019-05-13T18:59:03.287Z,45.90
2019-05-13T19:01:47.913Z,45.90
2019-05-13T19:04:18.801Z,45.80
2019-05-13T19:06:54.339Z,45.80
2019-05-13T19:09:23.525Z,45.70
2019-05-13T19:11:52.891Z,45.70
2019-05-13T19:14:26.929Z,45.90
2019-05-13T19:17:02.416Z,46.00
2019-05-13T19:19:37.037Z,46.10
2019-05-13T19:22:25.492Z,46.20
2019-05-13T19:24:54.995Z,46.10
2019-05-13T19:27:32.063Z,46.10
2019-05-13T19:30:02.744Z,46.10
2019-05-13T19:32:34.913Z,46.10
2019-05-13T19:35:08.462Z,46.20
2019-05-13T19:37:35.321Z,46.30
2019-05-13T19:40:04.909Z,46.30
2019-05-13T19:42:41.662Z,46.40
2019-05-13T19:45:15.377Z,46.30
2019-05-13T19:47:55.709Z,46.40
2019-05-13T19:50:27.848Z,46.20
2019-05-13T19:53:12.087Z,46.20
2019-05-13T19:55:41.587Z,46.20
2019-05-13T19:58:12.403Z,46.20
2019-05-13T20:00:42.448Z,46.30
2019-05-13T20:03:12.125Z,46.20
2019-05-13T20:05:47.958Z,46.20
2019-05-13T20:08:17.093Z,46.10
2019-05-13T20:10:46.169Z,46.10
2019-05-13T20:13:15.440Z,46.00
2019-05-13T20:15:51.879Z,46.00
2019-05-13T20:18:22.909Z,46.00
2019-05-13T20:20:52.242Z,46.00
2019-05-13T20:23:25.689Z,46.00
2019-05-13T20:25:57.421Z,45.90
2019-05-13T20:28:33.659Z,46.00
2019-05-13T20:31:03.075Z,45.90
2019-05-13T20:33:39.957Z,46.50
2019-05-13T20:36:11.762Z,45.70
2019-05-13T20:38:40.882Z,45.70
2019-05-13T20:41:19.218Z,45.70
2019-05-13T20:43:58.466Z,45.70
2019-05-13T20:46:24.921Z,45.80
2019-05-13T20:48:57.409Z,46.40
2019-05-13T20:51:34.074Z,45.70
2019-05-13T20:54:34.369Z,45.60
2019-05-13T20:57:06.936Z,45.60
2019-05-13T20:59:38.122Z,45.60
2019-05-13T21:02:07.188Z,45.50
2019-05-13T21:04:42.372Z,45.50
2019-05-13T21:07:12.050Z,45.50
2019-05-13T21:09:42.343Z,45.50
2019-05-13T21:12:12.177Z,45.40
2019-05-13T21:14:46.783Z,45.30
2019-05-13T21:17:16.570Z,45.20
2019-05-13T21:19:46.098Z,45.10
2019-05-13T21:22:24.205Z,45.00
2019-05-13T21:24:56.678Z,45.00
2019-05-13T21:27:31.514Z,44.90
2019-05-13T21:30:01.360Z,44.90
2019-05-13T21:32:31.033Z,44.90
2019-05-13T21:35:01.773Z,44.80
2019-05-13T21:37:31.499Z,44.80
2019-05-13T21:40:00.841Z,44.80
2019-05-13T21:42:32.142Z,44.80
2019-05-13T21:45:03.984Z,44.60
2019-05-13T21:47:38.097Z,44.60
2019-05-13T21:50:04.838Z,44.60
2019-05-13T21:52:34.802Z,44.60
2019-05-13T21:55:03.875Z,44.50
2019-05-13T21:57:37.979Z,44.60
2019-05-13T22:00:09.889Z,44.50
2019-05-13T22:02:41.145Z,44.40
2019-05-13T22:05:11.634Z,44.30
2019-05-13T22:07:42.112Z,44.20
2019-05-13T22:10:12.006Z,44.20
2019-05-13T22:12:44.750Z,44.20
2019-05-13T22:15:17.416Z,44.20
2019-05-13T22:17:47.019Z,44.10
2019-05-13T22:20:21.354Z,44.10
2019-05-13T22:22:52.053Z,44.10
2019-05-13T22:25:21.739Z,44.00
2019-05-13T22:28:02.144Z,44.00
2019-05-13T22:30:33.498Z,44.00
2019-05-13T22:33:04.628Z,44.00
2019-05-13T22:35:38.250Z,43.90
2019-05-13T22:38:34.390Z,44.00
2019-05-13T22:41:04.949Z,44.40
2019-05-13T22:43:55.665Z,44.00
2019-05-13T22:46:21.359Z,43.90
2019-05-13T22:48:51.348Z,43.90
2019-05-13T22:51:31.845Z,43.80
2019-05-13T22:54:00.669Z,43.90
2019-05-13T22:56:31.978Z,43.80
2019-05-13T22:59:02.044Z,43.70
2019-05-13T23:01:32.416Z,43.80
2019-05-13T23:04:07.983Z,43.70
2019-05-13T23:06:40.296Z,43.80
2019-05-13T23:09:12.319Z,43.70
2019-05-13T23:11:41.755Z,43.90
2019-05-13T23:14:13.463Z,43.60
2019-05-13T23:16:42.271Z,43.60
2019-05-13T23:19:11.800Z,43.50
2019-05-13T23:21:41.770Z,43.50
2019-05-13T23:27:13.514Z,43.50
2019-05-13T23:29:42.783Z,43.50
2019-05-13T23:32:15.153Z,43.50
2019-05-13T23:34:46.001Z,43.40
2019-05-13T23:37:21.901Z,43.40
2019-05-13T23:39:52.052Z,43.30
2019-05-13T23:42:25.030Z,43.40
2019-05-13T23:44:54.496Z,43.40
2019-05-13T23:47:26.812Z,43.30
2019-05-13T23:49:56.077Z,43.30
2019-05-13T23:52:27.341Z,43.20
2019-05-13T23:55:02.128Z,43.20
2019-05-13T23:57:31.645Z,43.20
